Latest Weather Observations for Yulara

IDD60801

Issued at 1:21 pm CST Thursday 26 May 2022 (issued every 10 minutes, with the page automatically refreshed every 10 minutes)

About weather observations | Map of weather stations | Latest weather observations for NT | Other Formats
Station Details ID: 015635 Name: YULARA AIRPORT Lat: -25.19 Lon: 130.97 Height: 492.0 m
Data from the previous 72 hours. | See also: Recent months at Yulara
Date/Time
CST
Temp
°C
App
Temp
°C
Dew
Point
°C
Rel
Hum
%
Delta-T
°C
Wind Press
QNH
hPa
Press
MSL
hPa
Rain since
9am
mm
Dir  Spd
km/h
Gust
km/h
Spd
kts
Gust
kts
26/01:00pm 23.2 18.7 8.5 39 8.0 E 22 32 12 17 1018.8 1017.6 0.0
26/12:30pm 22.5 17.2 8.6 41 7.5 ESE 26 35 14 19 1019.4 1018.2 0.0
26/12:00pm 22.3 17.1 8.8 42 7.3 E 26 37 14 20 1019.8 1018.6 0.0
26/11:30am 21.1 16.9 8.4 44 6.8 E 20 30 11 16 1020.4 1019.2 0.0
26/11:00am 20.6 16.4 8.3 45 6.6 E 20 30 11 16 1020.9 1019.7 0.0
26/10:30am 19.5 14.5 8.2 48 6.0 ESE 24 32 13 17 1021.3 1020.1 0.0
26/10:00am 18.7 14.2 8.7 52 5.3 ESE 22 32 12 17 1021.3 1020.1 0.0
26/09:30am 17.4 12.5 8.3 55 4.8 ESE 24 37 13 20 1020.8 1019.6 0.0
26/09:00am 16.5 12.7 9.0 61 4.0 ESE 19 28 10 15 1020.6 1019.4 0.2
26/08:30am 14.3 11.6 9.1 71 2.7 ESE 13 17 7 9 1020.2 1019.0 0.2
26/08:00am 13.0 11.1 9.1 77 2.0 ESE 9 13 5 7 1019.7 1018.5 0.2
26/07:30am 12.6 9.9 9.1 79 1.8 SE 13 19 7 10 1019.4 1018.2 0.2
26/07:00am 12.2 10.3 9.0 81 1.6 SSE 9 13 5 7 1019.2 1017.9 0.2
26/06:30am 11.4 9.4 8.8 84 1.3 SSE 9 13 5 7 1018.8 1017.6 0.2
26/06:00am 11.7 9.7 8.6 81 1.6 SSE 9 11 5 6 1018.7 1017.5 0.2
26/05:30am 12.2 10.3 8.9 80 1.7 SSE 9 11 5 6 1018.4 1017.2 0.2
26/05:00am 12.0 10.0 8.7 80 1.7 SSE 9 11 5 6 1018.5 1017.3 0.2
26/04:30am 11.6 9.6 8.5 81 1.6 SSW 9 11 5 6 1018.5 1017.3 0.2
26/04:00am 12.3 10.0 9.0 80 1.7 S 11 13 6 7 1018.2 1017.0 0.2
26/03:30am 11.9 10.1 8.0 77 2.0 SSE 7 9 4 5 1018.1 1016.9 0.2
26/03:00am 12.7 11.0 8.4 75 2.2 S 7 9 4 5 1018.0 1016.8 0.2
26/02:30am 14.3 12.7 8.9 70 2.8 SE 7 9 4 5 1018.0 1016.8 0.2
26/02:00am 15.7 13.4 9.1 65 3.5 SSE 11 15 6 8 1017.8 1016.6 0.2
26/01:30am 15.9 13.2 9.1 64 3.6 SSE 13 17 7 9 1017.8 1016.6 0.2
26/01:00am 15.4 13.1 9.1 66 3.3 S 11 15 6 8 1017.9 1016.7 0.2
26/12:30am 16.1 13.9 9.3 64 3.6 S 11 15 6 8 1018.0 1016.8 0.2
26/12:00am 16.0 14.1 9.2 64 3.6 S 9 13 5 7 1018.0 1016.8 0.2
 
Date/Time
CST
Temp
°C
App
Temp
°C
Dew
Point
°C
Rel
Hum
%
Delta-T
°C
Wind Press
QNH
hPa
Press
MSL
hPa
Rain since
9am
mm
Dir  Spd
km/h
Gust
km/h
Spd
kts
Gust
kts
25/11:30pm 16.9 14.7 9.3 61 4.0 S 11 15 6 8 1018.0 1016.8 0.2
25/11:00pm 17.9 15.8 9.8 59 4.4 SSW 11 17 6 9 1018.2 1017.0 0.2
25/10:30pm 17.9 15.3 9.5 58 4.5 S 13 15 7 8 1017.9 1016.7 0.2
25/10:00pm 19.1 16.6 9.6 54 5.2 S 13 17 7 9 1017.8 1016.6 0.2
25/09:30pm 19.2 17.5 9.7 54 5.2 SSE 9 13 5 7 1017.7 1016.5 0.2
25/09:00pm 20.1 18.0 9.7 51 5.7 SSE 11 15 6 8 1017.5 1016.3 0.2
25/08:30pm 20.3 17.8 9.8 51 5.8 S 13 17 7 9 1017.2 1015.9 0.2
25/08:00pm 21.1 19.4 10.0 49 6.1 SSE 9 15 5 8 1016.8 1015.5 0.2
25/07:30pm 21.6 19.3 10.4 49 6.2 S 13 17 7 9 1016.4 1015.2 0.2
25/07:00pm 21.9 20.4 10.4 48 6.4 S 9 11 5 6 1016.2 1015.0 0.2
25/06:30pm 23.3 21.6 10.0 43 7.4 SSE 9 11 5 6 1015.8 1014.6 0.2
25/06:00pm 24.5 22.7 9.3 38 8.4 SSW 9 13 5 7 1015.6 1014.3 0.2
25/05:30pm 25.6 23.3 9.0 35 9.2 SSW 11 15 6 8 1015.4 1014.1 0.2
25/05:00pm 26.7 24.7 8.6 32 10.1 ESE 9 17 5 9 1015.2 1013.9 0.2
25/04:30pm 27.4 26.0 8.8 31 10.4 NNW 6 11 3 6 1015.3 1014.0 0.2
25/04:00pm 27.0 25.3 8.4 31 10.3 NE 7 11 4 6 1015.3 1014.0 0.2
25/03:30pm 26.9 25.5 8.8 32 10.1 WNW 6 13 3 7 1015.4 1014.1 0.2
25/03:00pm 26.7 25.4 9.1 33 9.9 SSE 6 9 3 5 1015.4 1014.1 0.2
25/02:30pm 26.6 25.6 9.0 33 9.8 NNE 4 11 2 6 1015.7 1014.5 0.2
25/02:00pm 25.5 23.6 8.9 35 9.2 WSW 9 15 5 8 1016.0 1014.8 0.2
25/01:30pm 25.3 23.4 9.2 36 9.0 ENE 9 15 5 8 1016.4 1015.2 0.2
25/01:00pm 25.1 23.3 9.4 37 8.8 SSE 9 19 5 10 1016.9 1015.6 0.2
25/12:30pm 23.8 22.0 9.4 40 8.0 SSE 9 17 5 9 1017.4 1016.1 0.2
25/12:00pm 23.2 21.1 9.6 42 7.5 SSE 11 17 6 9 1018.0 1016.8 0.2
25/11:30am 22.4 20.4 10.2 46 6.8 SSE 11 20 6 11 1018.5 1017.3 0.2
25/11:00am 21.5 19.9 10.3 49 6.2 SE 9 11 5 6 1018.8 1017.6 0.0
25/10:30am 20.5 18.3 10.9 54 5.4 ESE 13 17 7 9 1018.8 1017.6 0.0
25/10:00am 18.3 16.3 11.4 64 3.9 SE 13 17 7 9 1019.2 1017.9 0.0
25/09:30am 15.5 14.7 11.7 78 2.1 S 7 11 4 6 1019.3 1018.1 0.0
25/09:00am 13.9 12.5 10.9 82 1.6 S 9 13 5 7 1019.5 1018.3 0.2
25/08:30am 12.0 9.8 10.9 93 0.6 SSW 13 17 7 9 1019.2 1017.9 0.2
25/08:00am 10.4 8.0 10.1 98 0.2 SSW 13 19 7 10 1018.7 1017.5 0.2
25/07:30am 9.4 7.6 9.4 100 0.0 SSW 9 11 5 6 1018.2 1017.0 0.2
25/07:00am 9.1 7.2 9.0 99 0.1 SSW 9 9 5 5 1018.1 1016.9 0.2
25/06:30am 9.4 7.6 9.3 99 0.1 S 9 9 5 5 1017.7 1016.5 0.2
25/06:00am 9.8 8.1 9.8 100 0.0 SSW 9 13 5 7 1017.7 1016.5 0.2
25/05:30am 9.8 8.1 9.7 99 0.1 S 9 13 5 7 1017.6 1016.4 0.2
25/05:00am 10.1 7.6 9.8 98 0.2 SSW 13 15 7 8 1017.6 1016.4 0.2
25/04:30am 10.5 8.1 10.2 98 0.2 SSW 13 17 7 9 1017.6 1016.4 0.2
25/04:00am 10.3 7.9 10.1 99 0.1 SSW 13 17 7 9 1017.5 1016.3 0.2
25/03:30am 10.3 8.3 10.0 98 0.2 SSW 11 13 6 7 1017.4 1016.1 0.2
25/03:00am 10.5 8.9 10.2 98 0.2 SSW 9 13 5 7 1017.5 1016.3 0.2
25/02:30am 10.6 9.0 10.3 98 0.2 S 9 11 5 6 1017.7 1016.5 0.2
25/02:00am 10.6 9.1 10.4 99 0.1 SSW 9 11 5 6 1018.0 1016.8 0.2
25/01:30am 10.7 9.1 10.2 97 0.3 S 9 11 5 6 1018.1 1016.9 0.2
25/01:00am 10.8 9.2 10.3 97 0.3 SSW 9 13 5 7 1018.4 1017.2 0.2
25/12:30am 11.0 9.5 10.5 97 0.3 SSW 9 11 5 6 1018.6 1017.4 0.2
25/12:00am 11.5 10.0 10.7 95 0.4 SSW 9 11 5 6 1018.8 1017.6 0.2
 
Date/Time
CST
Temp
°C
App
Temp
°C
Dew
Point
°C
Rel
Hum
%
Delta-T
°C
Wind Press
QNH
hPa
Press
MSL
hPa
Rain since
9am
mm
Dir  Spd
km/h
Gust
km/h
Spd
kts
Gust
kts
24/11:30pm 12.0 10.7 11.1 94 0.5 S 9 11 5 6 1018.8 1017.6 0.2
24/11:00pm 12.5 11.2 11.2 92 0.7 S 9 13 5 7 1019.2 1017.9 0.2
24/10:30pm 13.2 12.1 11.8 91 0.8 S 9 13 5 7 1019.2 1017.9 0.2
24/10:00pm 13.8 13.1 12.0 89 1.0 S 7 11 4 6 1019.1 1017.8 0.2
24/09:30pm 13.2 12.4 11.6 90 0.9 SSE 7 9 4 5 1019.2 1017.9 0.2
24/09:00pm 14.7 13.7 12.2 85 1.4 SSE 9 11 5 6 1019.2 1017.9 0.2
24/08:30pm 15.1 14.4 12.1 82 1.7 SSE 7 7 4 4 1018.8 1017.6 0.2
24/08:00pm 15.8 15.3 12.2 79 2.0 SSE 6 7 3 4 1018.7 1017.5 0.2
24/07:30pm 17.2 16.5 12.1 72 2.9 ESE 7 9 4 5 1018.4 1017.2 0.2
24/07:00pm 17.7 16.5 11.7 68 3.4 ESE 9 11 5 6 1018.2 1017.0 0.2
24/06:30pm 17.7 16.5 11.7 68 3.4 ENE 9 9 5 5 1017.9 1016.7 0.2
24/06:00pm 18.7 17.1 11.5 63 4.0 ENE 11 13 6 7 1017.7 1016.5 0.2
24/05:30pm 19.7 17.8 11.7 60 4.5 ENE 13 17 7 9 1017.7 1016.5 0.2
24/05:00pm 19.7 16.9 11.2 58 4.8 ENE 17 20 9 11 1017.3 1016.0 0.2
24/04:30pm 19.5 16.5 11.8 61 4.4 ENE 19 22 10 12 1017.1 1015.8 0.2
24/04:00pm 19.4 16.6 11.4 60 4.5 ENE 17 19 9 10 1017.5 1016.3 0.0
24/03:30pm 19.1 16.5 12.1 64 4.0 ENE 17 22 9 12 1017.4 1016.1 0.0
24/03:00pm 19.8 18.4 10.8 56 5.0 ENE 9 17 5 9 1017.9 1016.7 0.0
24/02:30pm 19.6 17.4 10.9 57 4.8 ENE 13 17 7 9 1018.0 1016.8 0.0
24/02:00pm 19.3 16.9 11.3 60 4.5 E 15 20 8 11 1018.0 1016.8 0.0
24/01:30pm 18.8 16.5 11.6 63 4.0 ENE 15 19 8 10 1018.7 1017.5 0.0
24/01:00pm 18.6 15.6 11.9 65 3.8 E 19 24 10 13 1018.8 1017.6 0.0
24/12:30pm 18.0 15.3 11.8 67 3.5 E 17 20 9 11 1019.6 1018.4 0.0
24/12:00pm 17.5 15.0 12.4 72 2.9 ESE 17 22 9 12 1020.5 1019.3 0.0
24/11:30am 17.0 14.6 12.7 76 2.4 SE 17 24 9 13 1021.7 1020.5 0.0
24/11:00am 16.8 14.5 12.9 78 2.2 SE 17 20 9 11 1021.8 1020.6 0.0
24/10:30am 16.5 14.5 12.8 79 2.1 SE 15 20 8 11 1022.0 1020.8 0.0
24/10:00am 16.5 14.9 12.8 79 2.1 SE 13 20 7 11 1021.8 1020.6 0.0
24/09:30am 15.6 14.4 14.0 90 0.9 SSE 13 17 7 9 1021.3 1020.1 0.0
24/09:00am 15.0 12.9 13.5 91 0.9 S 17 22 9 12 1021.6 1020.4 0.6
24/08:30am 15.0 13.1 13.0 88 1.1 S 15 19 8 10 1021.1 1019.9 0.2
24/08:00am 15.3 13.5 12.2 82 1.7 SSW 13 19 7 10 1020.7 1019.5 0.2
24/07:30am 15.3 13.5 12.1 81 1.8 S 13 17 7 9 1020.1 1018.9 0.0
24/07:00am 15.5 15.1 12.4 82 1.7 SSE 6 7 3 4 1019.6 1018.4 0.0
24/06:30am 15.6 14.1 12.0 79 2.0 S 11 13 6 7 1019.7 1018.5 0.0
24/06:00am 15.6 14.9 12.0 79 2.0 SW 7 9 4 5 1019.6 1018.4 0.0
24/05:30am 15.9 13.8 11.3 74 2.5 S 13 15 7 8 1019.2 1017.9 0.0
24/05:00am 16.9 13.9 9.3 61 4.1 S 15 19 8 10 1018.7 1017.5 0.0
24/04:30am 17.1 14.4 8.8 58 4.4 S 13 15 7 8 1018.7 1017.5 0.0
24/04:00am 17.4 15.3 8.3 55 4.8 S 9 13 5 7 1018.6 1017.4 0.0
24/03:30am 17.6 15.6 8.5 55 4.8 SSW 9 11 5 6 1018.6 1017.4 0.0
24/03:00am 17.7 15.6 8.3 54 4.9 S 9 13 5 7 1018.2 1017.0 0.0
24/02:30am 18.1 15.8 7.5 50 5.5 SE 9 13 5 7 1018.1 1016.9 0.0
24/02:00am 18.4 15.7 7.2 48 5.8 SSE 11 15 6 8 1018.4 1017.2 0.0
24/01:30am 18.0 15.7 7.4 50 5.5 SSE 9 11 5 6 1018.7 1017.5 0.0
24/01:00am 18.2 15.8 7.0 48 5.8 S 9 11 5 6 1019.3 1018.1 0.0
24/12:30am 19.0 16.6 7.1 46 6.1 ESE 9 13 5 7 1019.1 1017.8 0.0
24/12:00am 19.3 16.2 7.1 45 6.3 SE 13 17 7 9 1019.5 1018.3 0.0
 
Date/Time
CST
Temp
°C
App
Temp
°C
Dew
Point
°C
Rel
Hum
%
Delta-T
°C
Wind Press
QNH
hPa
Press
MSL
hPa
Rain since
9am
mm
Dir  Spd
km/h
Gust
km/h
Spd
kts
Gust
kts
23/11:30pm 19.0 16.6 6.8 45 6.3 SE 9 13 5 7 1020.2 1019.0 0.0
23/11:00pm 19.1 16.3 6.9 45 6.3 SE 11 13 6 7 1020.0 1018.8 0.0
23/10:30pm 19.5 16.7 6.9 44 6.5 SSE 11 13 6 7 1020.1 1018.9 0.0
23/10:00pm 20.0 17.9 6.7 42 6.9 SE 7 11 4 6 1020.4 1019.2 0.0
23/09:30pm 20.4 17.9 6.4 40 7.2 ESE 9 13 5 7 1020.4 1019.2 0.0
23/09:00pm 20.6 17.6 5.8 38 7.5 ESE 11 15 6 8 1019.6 1018.4 0.0
23/08:30pm 20.7 18.0 5.5 37 7.7 SSE 9 13 5 7 1019.8 1018.6 0.0
23/08:00pm 20.9 17.8 5.7 37 7.8 SSE 11 13 6 7 1019.3 1018.1 0.0
23/07:30pm 20.7 18.1 6.3 39 7.4 S 9 11 5 6 1019.2 1017.9 0.0
23/07:00pm 21.4 18.7 5.7 36 8.0 SSE 9 11 5 6 1018.5 1017.3 0.0
23/06:30pm 22.6 19.8 5.1 32 8.9 ESE 9 11 5 6 1018.1 1016.9 0.0
23/06:00pm 23.0 20.5 4.0 29 9.5 ENE 6 9 3 5 1017.7 1016.5 0.0
23/05:30pm 23.8 20.1 4.7 29 9.7 ESE 13 15 7 8 1017.2 1015.9 0.0
23/05:00pm 23.8 21.5 4.7 29 9.7 ESE 6 9 3 5 1017.2 1015.9 0.0
23/04:30pm 24.0 21.5 4.9 29 9.8 ESE 7 11 4 6 1017.1 1015.8 0.0
23/04:00pm 23.8 20.9 4.7 29 9.7 ESE 9 13 5 7 1017.1 1015.8 0.0
23/03:30pm 23.9 20.6 4.8 29 9.8 E 11 17 6 9 1016.9 1015.6 0.0
23/03:00pm 23.7 20.9 5.1 30 9.5 ENE 9 15 5 8 1017.1 1015.8 0.0
23/02:30pm 23.9 20.6 4.3 28 9.9 E 11 17 6 9 1017.1 1015.8 0.0
23/02:00pm 23.7 21.7 4.6 29 9.7 NE 4 13 2 7 1017.8 1016.6 0.0
23/01:30pm 23.4 21.1 4.9 30 9.4 ENE 6 13 3 7 1018.3 1017.1 0.0

Other formats

Comma delimited format used in spreadsheet applications
http://www.bom.gov.au/fwo/IDD60801/IDD60801.94462.axf

JavaScript Object Notation format (JSON) in row-major order
http://www.bom.gov.au/fwo/IDD60801/IDD60801.94462.json

Data quality

Most of these data are generated automatically and are frequently updated. Quality checks on data are not normally performed. It is possible for incorrect values to appear. Refer to information at About Latest Weather Observations and please check the disclaimer before using these data.